sensor_id;sensor_type;location;lat;lon;timestamp;temperature;humidity
1367;DHT22;16877;48.810;9.282;2023-06-14T00:01:02;31.80;28.90
1367;DHT22;16877;48.810;9.282;2023-06-14T00:03:31;31.80;29.00
1367;DHT22;16877;48.810;9.282;2023-06-14T00:05:59;31.80;28.90
1367;DHT22;16877;48.810;9.282;2023-06-14T00:08:26;31.70;28.90
1367;DHT22;16877;48.810;9.282;2023-06-14T00:10:56;31.70;29.00
1367;DHT22;16877;48.810;9.282;2023-06-14T00:13:28;31.70;29.00
1367;DHT22;16877;48.810;9.282;2023-06-14T00:15:57;31.70;29.00
1367;DHT22;16877;48.810;9.282;2023-06-14T00:18:25;31.60;29.10
1367;DHT22;16877;48.810;9.282;2023-06-14T00:20:55;31.60;29.20
1367;DHT22;16877;48.810;9.282;2023-06-14T00:23:22;31.60;29.20
1367;DHT22;16877;48.810;9.282;2023-06-14T00:25:50;31.50;29.20
1367;DHT22;16877;48.810;9.282;2023-06-14T00:28:32;31.50;29.30
1367;DHT22;16877;48.810;9.282;2023-06-14T00:31:01;31.40;29.40
1367;DHT22;16877;48.810;9.282;2023-06-14T00:33:32;31.40;29.40
1367;DHT22;16877;48.810;9.282;2023-06-14T00:36:02;31.40;29.40
1367;DHT22;16877;48.810;9.282;2023-06-14T00:38:30;31.40;29.50
1367;DHT22;16877;48.810;9.282;2023-06-14T00:40:57;31.30;29.50
1367;DHT22;16877;48.810;9.282;2023-06-14T00:43:25;31.40;29.60
1367;DHT22;16877;48.810;9.282;2023-06-14T00:46:09;31.30;29.60
1367;DHT22;16877;48.810;9.282;2023-06-14T00:48:39;31.30;29.60
1367;DHT22;16877;48.810;9.282;2023-06-14T00:51:07;31.20;29.60
1367;DHT22;16877;48.810;9.282;2023-06-14T00:53:35;31.20;29.70
1367;DHT22;16877;48.810;9.282;2023-06-14T00:56:03;31.20;29.80
1367;DHT22;16877;48.810;9.282;2023-06-14T00:58:31;31.20;29.80
1367;DHT22;16877;48.810;9.282;2023-06-14T01:00:59;31.10;29.80
1367;DHT22;16877;48.810;9.282;2023-06-14T01:03:29;31.10;29.80
1367;DHT22;16877;48.810;9.282;2023-06-14T01:06:03;31.10;29.90
1367;DHT22;16877;48.810;9.282;2023-06-14T01:08:43;31.10;29.90
1367;DHT22;16877;48.810;9.282;2023-06-14T01:11:21;31.00;30.00
1367;DHT22;16877;48.810;9.282;2023-06-14T01:13:50;31.00;30.00
1367;DHT22;16877;48.810;9.282;2023-06-14T01:16:23;31.00;30.00
1367;DHT22;16877;48.810;9.282;2023-06-14T01:18:53;31.00;30.10
1367;DHT22;16877;48.810;9.282;2023-06-14T01:21:22;30.90;30.10
1367;DHT22;16877;48.810;9.282;2023-06-14T01:23:56;30.90;30.10
1367;DHT22;16877;48.810;9.282;2023-06-14T01:26:29;30.90;30.20
1367;DHT22;16877;48.810;9.282;2023-06-14T01:28:56;30.90;30.20
1367;DHT22;16877;48.810;9.282;2023-06-14T01:31:36;30.80;30.30
1367;DHT22;16877;48.810;9.282;2023-06-14T01:34:07;30.80;30.20
1367;DHT22;16877;48.810;9.282;2023-06-14T01:36:36;30.80;30.30
1367;DHT22;16877;48.810;9.282;2023-06-14T01:39:10;30.70;30.20
1367;DHT22;16877;48.810;9.282;2023-06-14T01:41:39;30.70;30.30
1367;DHT22;16877;48.810;9.282;2023-06-14T01:44:06;30.70;30.30
1367;DHT22;16877;48.810;9.282;2023-06-14T01:46:36;30.70;30.30
1367;DHT22;16877;48.810;9.282;2023-06-14T01:49:18;30.60;30.40
1367;DHT22;16877;48.810;9.282;2023-06-14T01:51:46;30.60;30.50
1367;DHT22;16877;48.810;9.282;2023-06-14T01:54:15;30.60;30.60
1367;DHT22;16877;48.810;9.282;2023-06-14T01:56:42;30.60;30.70
1367;DHT22;16877;48.810;9.282;2023-06-14T01:59:10;30.60;30.70
1367;DHT22;16877;48.810;9.282;2023-06-14T02:01:42;30.60;30.80
1367;DHT22;16877;48.810;9.282;2023-06-14T02:04:09;30.50;30.80
1367;DHT22;16877;48.810;9.282;2023-06-14T02:06:40;30.60;30.90
1367;DHT22;16877;48.810;9.282;2023-06-14T02:09:07;30.50;30.90
1367;DHT22;16877;48.810;9.282;2023-06-14T02:11:39;30.50;31.00
1367;DHT22;16877;48.810;9.282;2023-06-14T02:14:07;30.50;31.10
1367;DHT22;16877;48.810;9.282;2023-06-14T02:16:37;30.40;31.10
1367;DHT22;16877;48.810;9.282;2023-06-14T02:19:05;30.40;31.20
1367;DHT22;16877;48.810;9.282;2023-06-14T02:21:32;30.40;31.20
1367;DHT22;16877;48.810;9.282;2023-06-14T02:24:02;30.40;31.30
1367;DHT22;16877;48.810;9.282;2023-06-14T02:26:31;30.30;31.30
1367;DHT22;16877;48.810;9.282;2023-06-14T02:29:00;30.30;31.40
1367;DHT22;16877;48.810;9.282;2023-06-14T02:31:31;30.30;31.50
1367;DHT22;16877;48.810;9.282;2023-06-14T02:33:58;30.30;31.60
1367;DHT22;16877;48.810;9.282;2023-06-14T02:36:25;30.20;31.60
1367;DHT22;16877;48.810;9.282;2023-06-14T02:38:55;30.20;31.70
1367;DHT22;16877;48.810;9.282;2023-06-14T02:41:23;30.20;31.70
1367;DHT22;16877;48.810;9.282;2023-06-14T02:43:53;30.20;31.80
1367;DHT22;16877;48.810;9.282;2023-06-14T02:46:24;30.20;31.80
1367;DHT22;16877;48.810;9.282;2023-06-14T02:48:54;30.10;31.90
1367;DHT22;16877;48.810;9.282;2023-06-14T02:51:21;30.10;31.90
1367;DHT22;16877;48.810;9.282;2023-06-14T02:53:50;30.10;31.90
1367;DHT22;16877;48.810;9.282;2023-06-14T02:56:18;30.00;31.90
1367;DHT22;16877;48.810;9.282;2023-06-14T02:58:46;30.10;32.10
1367;DHT22;16877;48.810;9.282;2023-06-14T03:01:16;30.10;32.10
1367;DHT22;16877;48.810;9.282;2023-06-14T03:03:49;30.00;32.10
1367;DHT22;16877;48.810;9.282;2023-06-14T03:06:17;30.00;32.10
1367;DHT22;16877;48.810;9.282;2023-06-14T03:08:50;30.00;32.20
1367;DHT22;16877;48.810;9.282;2023-06-14T03:11:20;30.00;32.20
1367;DHT22;16877;48.810;9.282;2023-06-14T03:13:51;29.90;32.20
1367;DHT22;16877;48.810;9.282;2023-06-14T03:16:22;29.90;32.20
1367;DHT22;16877;48.810;9.282;2023-06-14T03:18:56;29.90;32.20
1367;DHT22;16877;48.810;9.282;2023-06-14T03:21:26;29.80;32.20
1367;DHT22;16877;48.810;9.282;2023-06-14T03:23:54;29.80;32.20
1367;DHT22;16877;48.810;9.282;2023-06-14T03:26:21;29.80;32.20
1367;DHT22;16877;48.810;9.282;2023-06-14T03:28:51;29.80;32.30
1367;DHT22;16877;48.810;9.282;2023-06-14T03:31:19;29.70;32.30
1367;DHT22;16877;48.810;9.282;2023-06-14T03:33:50;29.80;32.40
1367;DHT22;16877;48.810;9.282;2023-06-14T03:36:21;29.70;32.30
1367;DHT22;16877;48.810;9.282;2023-06-14T03:38:50;29.70;32.40
1367;DHT22;16877;48.810;9.282;2023-06-14T03:41:21;29.70;32.40
1367;DHT22;16877;48.810;9.282;2023-06-14T03:43:49;29.70;32.40
1367;DHT22;16877;48.810;9.282;2023-06-14T03:46:16;29.70;32.50
1367;DHT22;16877;48.810;9.282;2023-06-14T03:48:44;29.60;32.40
1367;DHT22;16877;48.810;9.282;2023-06-14T03:51:14;29.60;32.50
1367;DHT22;16877;48.810;9.282;2023-06-14T03:53:45;29.60;32.50
1367;DHT22;16877;48.810;9.282;2023-06-14T03:56:13;29.60;32.60
1367;DHT22;16877;48.810;9.282;2023-06-14T03:58:40;29.60;32.70
1367;DHT22;16877;48.810;9.282;2023-06-14T04:01:09;29.60;32.70
1367;DHT22;16877;48.810;9.282;2023-06-14T04:03:39;29.50;32.70
1367;DHT22;16877;48.810;9.282;2023-06-14T04:06:21;29.50;32.80
1367;DHT22;16877;48.810;9.282;2023-06-14T04:08:52;29.50;32.80
1367;DHT22;16877;48.810;9.282;2023-06-14T04:11:21;29.50;32.90
1367;DHT22;16877;48.810;9.282;2023-06-14T04:13:52;29.50;33.00
1367;DHT22;16877;48.810;9.282;2023-06-14T04:16:22;29.50;33.00
1367;DHT22;16877;48.810;9.282;2023-06-14T04:18:50;29.50;33.10
1367;DHT22;16877;48.810;9.282;2023-06-14T04:21:17;29.50;33.10
1367;DHT22;16877;48.810;9.282;2023-06-14T04:23:46;29.50;33.20
1367;DHT22;16877;48.810;9.282;2023-06-14T04:26:16;29.50;33.20
1367;DHT22;16877;48.810;9.282;2023-06-14T04:28:45;29.50;33.30
1367;DHT22;16877;48.810;9.282;2023-06-14T04:31:15;29.50;33.30
1367;DHT22;16877;48.810;9.282;2023-06-14T04:33:44;29.50;33.30
1367;DHT22;16877;48.810;9.282;2023-06-14T04:36:12;29.50;33.40
1367;DHT22;16877;48.810;9.282;2023-06-14T04:38:43;29.50;33.40
1367;DHT22;16877;48.810;9.282;2023-06-14T04:41:12;29.60;33.50
1367;DHT22;16877;48.810;9.282;2023-06-14T04:43:42;29.60;33.50
1367;DHT22;16877;48.810;9.282;2023-06-14T04:46:14;29.60;33.60
1367;DHT22;16877;48.810;9.282;2023-06-14T04:48:41;29.60;33.60
1367;DHT22;16877;48.810;9.282;2023-06-14T04:51:20;29.60;33.60
1367;DHT22;16877;48.810;9.282;2023-06-14T04:53:55;29.60;33.60
1367;DHT22;16877;48.810;9.282;2023-06-14T04:56:22;29.60;33.70
1367;DHT22;16877;48.810;9.282;2023-06-14T04:58:52;29.60;33.60
1367;DHT22;16877;48.810;9.282;2023-06-14T05:01:22;29.60;33.70
1367;DHT22;16877;48.810;9.282;2023-06-14T05:03:59;29.60;33.60
1367;DHT22;16877;48.810;9.282;2023-06-14T05:06:41;29.60;33.70
1367;DHT22;16877;48.810;9.282;2023-06-14T05:09:10;29.60;33.60
1367;DHT22;16877;48.810;9.282;2023-06-14T05:11:40;29.60;33.60
1367;DHT22;16877;48.810;9.282;2023-06-14T05:14:11;29.60;33.60
1367;DHT22;16877;48.810;9.282;2023-06-14T05:16:38;29.70;33.60
1367;DHT22;16877;48.810;9.282;2023-06-14T05:19:06;29.70;33.60
1367;DHT22;16877;48.810;9.282;2023-06-14T05:21:36;29.70;33.60
1367;DHT22;16877;48.810;9.282;2023-06-14T05:24:03;29.70;33.60
1367;DHT22;16877;48.810;9.282;2023-06-14T05:26:31;29.70;33.60
1367;DHT22;16877;48.810;9.282;2023-06-14T05:29:02;29.80;33.60
1367;DHT22;16877;48.810;9.282;2023-06-14T05:31:34;29.80;33.60
1367;DHT22;16877;48.810;9.282;2023-06-14T05:34:01;29.80;33.50
1367;DHT22;16877;48.810;9.282;2023-06-14T05:36:29;29.90;33.50
1367;DHT22;16877;48.810;9.282;2023-06-14T05:38:56;29.90;33.40
1367;DHT22;16877;48.810;9.282;2023-06-14T05:41:25;29.90;33.40
1367;DHT22;16877;48.810;9.282;2023-06-14T05:44:03;29.90;33.30
1367;DHT22;16877;48.810;9.282;2023-06-14T05:46:30;30.00;33.30
1367;DHT22;16877;48.810;9.282;2023-06-14T05:48:58;30.00;33.30
1367;DHT22;16877;48.810;9.282;2023-06-14T05:51:28;30.10;33.30
1367;DHT22;16877;48.810;9.282;2023-06-14T05:53:56;30.10;33.30
1367;DHT22;16877;48.810;9.282;2023-06-14T05:56:23;30.10;33.20
1367;DHT22;16877;48.810;9.282;2023-06-14T05:58:51;30.20;33.90
1367;DHT22;16877;48.810;9.282;2023-06-14T06:01:20;30.20;33.20
1367;DHT22;16877;48.810;9.282;2023-06-14T06:03:47;30.20;33.20
1367;DHT22;16877;48.810;9.282;2023-06-14T06:06:31;30.30;33.30
1367;DHT22;16877;48.810;9.282;2023-06-14T06:08:59;30.30;33.40
1367;DHT22;16877;48.810;9.282;2023-06-14T06:11:26;30.30;33.40
1367;DHT22;16877;48.810;9.282;2023-06-14T06:13:54;30.40;33.40
1367;DHT22;16877;48.810;9.282;2023-06-14T06:16:21;30.40;33.40
1367;DHT22;16877;48.810;9.282;2023-06-14T06:18:49;30.50;33.50
1367;DHT22;16877;48.810;9.282;2023-06-14T06:21:18;30.50;33.40
1367;DHT22;16877;48.810;9.282;2023-06-14T06:23:50;30.60;33.50
1367;DHT22;16877;48.810;9.282;2023-06-14T06:26:21;30.60;33.40
1367;DHT22;16877;48.810;9.282;2023-06-14T06:28:49;30.70;33.40
1367;DHT22;16877;48.810;9.282;2023-06-14T06:31:16;30.80;33.40
1367;DHT22;16877;48.810;9.282;2023-06-14T06:33:43;30.80;33.30
1367;DHT22;16877;48.810;9.282;2023-06-14T06:36:11;30.80;33.30
1367;DHT22;16877;48.810;9.282;2023-06-14T06:38:39;30.90;33.20
1367;DHT22;16877;48.810;9.282;2023-06-14T06:41:08;31.00;33.20
1367;DHT22;16877;48.810;9.282;2023-06-14T06:43:35;31.00;33.10
1367;DHT22;16877;48.810;9.282;2023-06-14T06:46:03;31.10;33.10
1367;DHT22;16877;48.810;9.282;2023-06-14T06:48:32;31.10;33.00
1367;DHT22;16877;48.810;9.282;2023-06-14T06:51:00;31.20;33.00
1367;DHT22;16877;48.810;9.282;2023-06-14T06:53:31;31.20;32.90
1367;DHT22;16877;48.810;9.282;2023-06-14T06:55:58;31.30;32.80
1367;DHT22;16877;48.810;9.282;2023-06-14T06:58:29;31.30;32.60
1367;DHT22;16877;48.810;9.282;2023-06-14T07:00:58;31.40;32.50
1367;DHT22;16877;48.810;9.282;2023-06-14T07:03:25;31.50;32.50
1367;DHT22;16877;48.810;9.282;2023-06-14T07:05:53;31.50;32.30
1367;DHT22;16877;48.810;9.282;2023-06-14T07:08:20;31.60;32.30
1367;DHT22;16877;48.810;9.282;2023-06-14T07:10:52;31.60;32.20
1367;DHT22;16877;48.810;9.282;2023-06-14T07:13:20;31.70;32.20
1367;DHT22;16877;48.810;9.282;2023-06-14T07:15:49;31.80;32.20
1367;DHT22;16877;48.810;9.282;2023-06-14T07:18:35;31.80;32.10
1367;DHT22;16877;48.810;9.282;2023-06-14T07:21:05;31.90;32.10
1367;DHT22;16877;48.810;9.282;2023-06-14T07:23:42;32.00;32.00
1367;DHT22;16877;48.810;9.282;2023-06-14T07:26:09;32.00;31.90
1367;DHT22;16877;48.810;9.282;2023-06-14T07:28:38;32.10;31.90
1367;DHT22;16877;48.810;9.282;2023-06-14T07:31:07;32.10;31.90
1367;DHT22;16877;48.810;9.282;2023-06-14T07:33:38;32.20;31.90
1367;DHT22;16877;48.810;9.282;2023-06-14T07:36:05;32.20;31.70
1367;DHT22;16877;48.810;9.282;2023-06-14T07:38:33;32.30;31.70
1367;DHT22;16877;48.810;9.282;2023-06-14T07:41:00;32.30;31.70
1367;DHT22;16877;48.810;9.282;2023-06-14T07:43:29;32.40;31.60
1367;DHT22;16877;48.810;9.282;2023-06-14T07:45:58;32.50;31.60
1367;DHT22;16877;48.810;9.282;2023-06-14T07:48:27;32.50;31.50
1367;DHT22;16877;48.810;9.282;2023-06-14T07:50:55;32.60;31.50
1367;DHT22;16877;48.810;9.282;2023-06-14T07:53:22;32.70;31.50
1367;DHT22;16877;48.810;9.282;2023-06-14T07:55:51;32.70;31.50
1367;DHT22;16877;48.810;9.282;2023-06-14T07:58:19;32.80;31.50
1367;DHT22;16877;48.810;9.282;2023-06-14T08:00:47;32.80;31.50
1367;DHT22;16877;48.810;9.282;2023-06-14T08:03:14;32.90;31.50
1367;DHT22;16877;48.810;9.282;2023-06-14T08:05:43;32.90;31.50
1367;DHT22;16877;48.810;9.282;2023-06-14T08:08:11;33.00;31.50
1367;DHT22;16877;48.810;9.282;2023-06-14T08:10:38;33.00;31.50
1367;DHT22;16877;48.810;9.282;2023-06-14T08:13:06;33.10;31.50
1367;DHT22;16877;48.810;9.282;2023-06-14T08:15:35;33.20;31.50
1367;DHT22;16877;48.810;9.282;2023-06-14T08:18:02;33.30;31.60
1367;DHT22;16877;48.810;9.282;2023-06-14T08:20:29;33.40;31.60
1367;DHT22;16877;48.810;9.282;2023-06-14T08:22:59;33.40;31.50
1367;DHT22;16877;48.810;9.282;2023-06-14T08:25:27;33.50;31.50
1367;DHT22;16877;48.810;9.282;2023-06-14T08:27:54;33.60;31.50
1367;DHT22;16877;48.810;9.282;2023-06-14T08:30:24;33.70;31.50
1367;DHT22;16877;48.810;9.282;2023-06-14T08:32:53;33.70;31.40
1367;DHT22;16877;48.810;9.282;2023-06-14T08:35:23;33.80;31.30
1367;DHT22;16877;48.810;9.282;2023-06-14T08:37:50;33.90;31.30
1367;DHT22;16877;48.810;9.282;2023-06-14T08:40:21;34.00;31.20
1367;DHT22;16877;48.810;9.282;2023-06-14T08:42:51;34.10;31.10
1367;DHT22;16877;48.810;9.282;2023-06-14T08:45:18;34.20;31.10
1367;DHT22;16877;48.810;9.282;2023-06-14T08:47:46;34.30;31.10
1367;DHT22;16877;48.810;9.282;2023-06-14T08:50:19;34.40;31.00
1367;DHT22;16877;48.810;9.282;2023-06-14T08:52:49;34.50;30.90
1367;DHT22;16877;48.810;9.282;2023-06-14T08:55:21;34.60;30.80
1367;DHT22;16877;48.810;9.282;2023-06-14T08:57:51;34.70;30.80
1367;DHT22;16877;48.810;9.282;2023-06-14T09:00:25;34.80;30.80
1367;DHT22;16877;48.810;9.282;2023-06-14T09:02:53;35.00;30.70
1367;DHT22;16877;48.810;9.282;2023-06-14T09:05:23;35.10;30.60
1367;DHT22;16877;48.810;9.282;2023-06-14T09:07:51;35.20;31.10
1367;DHT22;16877;48.810;9.282;2023-06-14T09:10:23;35.30;30.40
1367;DHT22;16877;48.810;9.282;2023-06-14T09:12:51;35.40;30.40
1367;DHT22;16877;48.810;9.282;2023-06-14T09:15:19;35.60;30.30
1367;DHT22;16877;48.810;9.282;2023-06-14T09:17:47;35.70;30.30
1367;DHT22;16877;48.810;9.282;2023-06-14T09:20:15;35.80;30.10
1367;DHT22;16877;48.810;9.282;2023-06-14T09:22:44;36.00;30.10
1367;DHT22;16877;48.810;9.282;2023-06-14T09:25:11;36.10;30.00
1367;DHT22;16877;48.810;9.282;2023-06-14T09:27:42;36.30;29.90
1367;DHT22;16877;48.810;9.282;2023-06-14T09:30:11;36.40;29.90
1367;DHT22;16877;48.810;9.282;2023-06-14T09:32:39;36.50;29.70
1367;DHT22;16877;48.810;9.282;2023-06-14T09:35:08;36.70;29.60
1367;DHT22;16877;48.810;9.282;2023-06-14T09:38:00;36.80;29.60
1367;DHT22;16877;48.810;9.282;2023-06-14T09:40:42;37.00;29.50
1367;DHT22;16877;48.810;9.282;2023-06-14T09:43:11;37.10;29.40
1367;DHT22;16877;48.810;9.282;2023-06-14T09:45:54;37.30;29.30
1367;DHT22;16877;48.810;9.282;2023-06-14T09:48:36;37.50;29.10
1367;DHT22;16877;48.810;9.282;2023-06-14T09:51:09;37.70;29.00
1367;DHT22;16877;48.810;9.282;2023-06-14T09:53:53;37.90;28.90
1367;DHT22;16877;48.810;9.282;2023-06-14T09:56:27;38.10;28.70
1367;DHT22;16877;48.810;9.282;2023-06-14T09:58:58;38.30;28.50
1367;DHT22;16877;48.810;9.282;2023-06-14T10:01:30;38.50;28.90
1367;DHT22;16877;48.810;9.282;2023-06-14T10:04:02;38.70;28.20
1367;DHT22;16877;48.810;9.282;2023-06-14T10:06:36;38.90;28.10
1367;DHT22;16877;48.810;9.282;2023-06-14T10:09:09;39.00;28.00
1367;DHT22;16877;48.810;9.282;2023-06-14T10:11:37;39.20;27.90
1367;DHT22;16877;48.810;9.282;2023-06-14T10:14:12;39.40;27.80
1367;DHT22;16877;48.810;9.282;2023-06-14T10:16:45;39.60;27.50
1367;DHT22;16877;48.810;9.282;2023-06-14T10:19:18;39.70;27.30
1367;DHT22;16877;48.810;9.282;2023-06-14T10:21:57;39.90;27.20
1367;DHT22;16877;48.810;9.282;2023-06-14T10:24:29;40.10;27.00
1367;DHT22;16877;48.810;9.282;2023-06-14T10:26:58;40.20;26.90
1367;DHT22;16877;48.810;9.282;2023-06-14T10:29:28;40.40;26.80
1367;DHT22;16877;48.810;9.282;2023-06-14T10:31:58;40.60;26.70
1367;DHT22;16877;48.810;9.282;2023-06-14T10:34:26;40.70;26.50
1367;DHT22;16877;48.810;9.282;2023-06-14T10:37:04;40.80;26.30
1367;DHT22;16877;48.810;9.282;2023-06-14T10:39:33;40.90;26.20
1367;DHT22;16877;48.810;9.282;2023-06-14T10:42:05;41.10;26.10
1367;DHT22;16877;48.810;9.282;2023-06-14T10:44:47;40.70;26.00
1367;DHT22;16877;48.810;9.282;2023-06-14T10:47:27;40.40;26.10
1367;DHT22;16877;48.810;9.282;2023-06-14T10:49:58;40.10;26.00
1367;DHT22;16877;48.810;9.282;2023-06-14T10:52:33;40.20;26.10
1367;DHT22;16877;48.810;9.282;2023-06-14T10:55:09;40.50;26.10
1367;DHT22;16877;48.810;9.282;2023-06-14T10:57:41;40.80;25.90
1367;DHT22;16877;48.810;9.282;2023-06-14T11:00:12;41.00;25.80
1367;DHT22;16877;48.810;9.282;2023-06-14T11:05:52;41.40;25.60
1367;DHT22;16877;48.810;9.282;2023-06-14T11:09:01;41.70;25.70
1367;DHT22;16877;48.810;9.282;2023-06-14T11:11:33;41.80;25.50
1367;DHT22;16877;48.810;9.282;2023-06-14T11:14:01;41.60;25.50
1367;DHT22;16877;48.810;9.282;2023-06-14T11:16:31;41.30;25.50
1367;DHT22;16877;48.810;9.282;2023-06-14T11:19:00;41.00;25.50
1367;DHT22;16877;48.810;9.282;2023-06-14T11:21:28;40.80;25.60
1367;DHT22;16877;48.810;9.282;2023-06-14T11:23:59;40.70;25.70
1367;DHT22;16877;48.810;9.282;2023-06-14T11:26:28;41.10;25.80
1367;DHT22;16877;48.810;9.282;2023-06-14T11:28:56;41.10;25.60
1367;DHT22;16877;48.810;9.282;2023-06-14T11:31:24;41.20;25.60
1367;DHT22;16877;48.810;9.282;2023-06-14T11:33:55;41.20;25.60
1367;DHT22;16877;48.810;9.282;2023-06-14T11:36:27;41.50;25.50
1367;DHT22;16877;48.810;9.282;2023-06-14T11:38:58;41.80;25.40
1367;DHT22;16877;48.810;9.282;2023-06-14T11:41:31;41.60;25.30
1367;DHT22;16877;48.810;9.282;2023-06-14T11:44:00;41.80;25.40
1367;DHT22;16877;48.810;9.282;2023-06-14T11:46:28;42.20;25.40
1367;DHT22;16877;48.810;9.282;2023-06-14T11:49:01;42.40;25.30
1367;DHT22;16877;48.810;9.282;2023-06-14T11:51:30;42.60;25.20
1367;DHT22;16877;48.810;9.282;2023-06-14T11:53:58;42.50;25.10
1367;DHT22;16877;48.810;9.282;2023-06-14T11:56:26;42.80;25.10
1367;DHT22;16877;48.810;9.282;2023-06-14T11:58:54;43.10;25.10
1367;DHT22;16877;48.810;9.282;2023-06-14T12:01:24;43.30;24.90
1367;DHT22;16877;48.810;9.282;2023-06-14T12:03:54;43.50;24.80
1367;DHT22;16877;48.810;9.282;2023-06-14T12:06:30;43.70;24.70
1367;DHT22;16877;48.810;9.282;2023-06-14T12:09:03;43.70;24.50
1367;DHT22;16877;48.810;9.282;2023-06-14T12:11:33;44.00;24.50
1367;DHT22;16877;48.810;9.282;2023-06-14T12:14:03;43.50;24.40
1367;DHT22;16877;48.810;9.282;2023-06-14T12:16:34;43.20;24.50
1367;DHT22;16877;48.810;9.282;2023-06-14T12:19:17;43.00;24.50
1367;DHT22;16877;48.810;9.282;2023-06-14T12:21:48;42.70;24.50
1367;DHT22;16877;48.810;9.282;2023-06-14T12:24:17;42.50;24.60
1367;DHT22;16877;48.810;9.282;2023-06-14T12:26:45;42.30;24.60
1367;DHT22;16877;48.810;9.282;2023-06-14T12:29:13;42.80;24.70
1367;DHT22;16877;48.810;9.282;2023-06-14T12:31:40;43.10;24.50
1367;DHT22;16877;48.810;9.282;2023-06-14T12:34:09;43.30;24.40
1367;DHT22;16877;48.810;9.282;2023-06-14T12:36:37;43.50;24.30
1367;DHT22;16877;48.810;9.282;2023-06-14T12:39:11;43.70;24.20
1367;DHT22;16877;48.810;9.282;2023-06-14T12:41:40;43.80;24.00
1367;DHT22;16877;48.810;9.282;2023-06-14T12:44:08;43.90;23.90
1367;DHT22;16877;48.810;9.282;2023-06-14T12:46:50;44.00;23.80
1367;DHT22;16877;48.810;9.282;2023-06-14T12:49:20;44.20;23.80
1367;DHT22;16877;48.810;9.282;2023-06-14T12:51:57;44.20;23.70
1367;DHT22;16877;48.810;9.282;2023-06-14T12:54:26;44.30;23.80
1367;DHT22;16877;48.810;9.282;2023-06-14T12:56:54;44.20;23.80
1367;DHT22;16877;48.810;9.282;2023-06-14T12:59:21;43.70;23.80
1367;DHT22;16877;48.810;9.282;2023-06-14T13:02:13;43.40;23.80
1367;DHT22;16877;48.810;9.282;2023-06-14T13:04:40;43.10;23.80
1367;DHT22;16877;48.810;9.282;2023-06-14T13:07:10;43.40;24.00
1367;DHT22;16877;48.810;9.282;2023-06-14T13:09:55;43.20;23.90
1367;DHT22;16877;48.810;9.282;2023-06-14T13:12:22;43.40;24.00
1367;DHT22;16877;48.810;9.282;2023-06-14T13:14:49;43.70;24.00
1367;DHT22;16877;48.810;9.282;2023-06-14T13:17:17;43.90;24.10
1367;DHT22;16877;48.810;9.282;2023-06-14T13:19:44;44.10;24.10
1367;DHT22;16877;48.810;9.282;2023-06-14T13:22:12;44.20;24.10
1367;DHT22;16877;48.810;9.282;2023-06-14T13:24:39;43.90;24.00
1367;DHT22;16877;48.810;9.282;2023-06-14T13:27:13;43.70;24.10
1367;DHT22;16877;48.810;9.282;2023-06-14T13:29:40;43.40;24.20
1367;DHT22;16877;48.810;9.282;2023-06-14T13:32:08;43.20;24.30
1367;DHT22;16877;48.810;9.282;2023-06-14T13:34:36;43.60;24.50
1367;DHT22;16877;48.810;9.282;2023-06-14T13:37:18;43.90;24.40
1367;DHT22;16877;48.810;9.282;2023-06-14T13:40:01;44.20;24.30
1367;DHT22;16877;48.810;9.282;2023-06-14T13:42:33;44.10;24.10
1367;DHT22;16877;48.810;9.282;2023-06-14T13:45:15;44.30;24.20
1367;DHT22;16877;48.810;9.282;2023-06-14T13:47:43;44.10;24.20
1367;DHT22;16877;48.810;9.282;2023-06-14T13:50:14;43.90;24.20
1367;DHT22;16877;48.810;9.282;2023-06-14T13:52:41;43.60;24.20
1367;DHT22;16877;48.810;9.282;2023-06-14T13:55:12;43.40;24.30
1367;DHT22;16877;48.810;9.282;2023-06-14T13:57:41;43.20;24.40
1367;DHT22;16877;48.810;9.282;2023-06-14T14:00:23;43.10;24.50
1367;DHT22;16877;48.810;9.282;2023-06-14T14:02:51;42.90;24.50
1367;DHT22;16877;48.810;9.282;2023-06-14T14:05:18;42.70;24.50
1367;DHT22;16877;48.810;9.282;2023-06-14T14:07:54;42.70;24.60
1367;DHT22;16877;48.810;9.282;2023-06-14T14:10:23;43.00;24.80
1367;DHT22;16877;48.810;9.282;2023-06-14T14:12:59;43.30;24.80
1367;DHT22;16877;48.810;9.282;2023-06-14T14:15:38;43.50;24.70
1367;DHT22;16877;48.810;9.282;2023-06-14T14:18:11;43.80;24.60
1367;DHT22;16877;48.810;9.282;2023-06-14T14:20:41;44.00;24.60
1367;DHT22;16877;48.810;9.282;2023-06-14T14:23:17;44.10;24.40
1367;DHT22;16877;48.810;9.282;2023-06-14T14:25:54;44.30;24.30
1367;DHT22;16877;48.810;9.282;2023-06-14T14:28:24;44.50;24.20
1367;DHT22;16877;48.810;9.282;2023-06-14T14:30:51;44.60;24.10
1367;DHT22;16877;48.810;9.282;2023-06-14T14:33:19;44.80;24.00
1367;DHT22;16877;48.810;9.282;2023-06-14T14:35:51;44.90;23.90
1367;DHT22;16877;48.810;9.282;2023-06-14T14:38:19;45.00;23.90
1367;DHT22;16877;48.810;9.282;2023-06-14T14:40:47;45.10;23.90
1367;DHT22;16877;48.810;9.282;2023-06-14T14:43:15;45.20;23.80
1367;DHT22;16877;48.810;9.282;2023-06-14T14:45:59;45.40;23.90
1367;DHT22;16877;48.810;9.282;2023-06-14T14:48:26;45.50;23.80
1367;DHT22;16877;48.810;9.282;2023-06-14T14:51:08;45.60;23.70
1367;DHT22;16877;48.810;9.282;2023-06-14T14:53:51;45.70;23.80
1367;DHT22;16877;48.810;9.282;2023-06-14T14:56:33;45.80;23.70
1367;DHT22;16877;48.810;9.282;2023-06-14T14:59:03;46.00;23.70
1367;DHT22;16877;48.810;9.282;2023-06-14T15:01:33;45.90;23.60
1367;DHT22;16877;48.810;9.282;2023-06-14T15:04:05;46.00;23.70
1367;DHT22;16877;48.810;9.282;2023-06-14T15:06:47;46.10;23.60
1367;DHT22;16877;48.810;9.282;2023-06-14T15:09:16;46.10;23.60
1367;DHT22;16877;48.810;9.282;2023-06-14T15:11:43;46.10;23.40
1367;DHT22;16877;48.810;9.282;2023-06-14T15:14:25;45.90;23.40
1367;DHT22;16877;48.810;9.282;2023-06-14T15:16:56;45.80;23.40
1367;DHT22;16877;48.810;9.282;2023-06-14T15:19:38;45.80;23.50
1367;DHT22;16877;48.810;9.282;2023-06-14T15:22:08;45.80;23.50
1367;DHT22;16877;48.810;9.282;2023-06-14T15:24:36;45.80;23.40
1367;DHT22;16877;48.810;9.282;2023-06-14T15:27:04;45.80;23.40
1367;DHT22;16877;48.810;9.282;2023-06-14T15:29:31;45.80;23.40
1367;DHT22;16877;48.810;9.282;2023-06-14T15:32:00;45.90;23.40
1367;DHT22;16877;48.810;9.282;2023-06-14T15:34:28;45.90;23.30
1367;DHT22;16877;48.810;9.282;2023-06-14T15:36:56;46.00;23.30
1367;DHT22;16877;48.810;9.282;2023-06-14T15:39:29;45.90;23.30
1367;DHT22;16877;48.810;9.282;2023-06-14T15:41:57;45.90;23.30
1367;DHT22;16877;48.810;9.282;2023-06-14T15:44:30;45.90;23.20
1367;DHT22;16877;48.810;9.282;2023-06-14T15:46:57;45.90;23.20
1367;DHT22;16877;48.810;9.282;2023-06-14T15:49:41;45.80;23.10
1367;DHT22;16877;48.810;9.282;2023-06-14T15:52:09;45.80;23.10
1367;DHT22;16877;48.810;9.282;2023-06-14T15:54:36;45.80;23.10
1367;DHT22;16877;48.810;9.282;2023-06-14T15:57:04;45.70;23.10
1367;DHT22;16877;48.810;9.282;2023-06-14T15:59:32;45.70;23.10
1367;DHT22;16877;48.810;9.282;2023-06-14T16:02:14;45.60;23.10
1367;DHT22;16877;48.810;9.282;2023-06-14T16:04:43;45.60;23.20
1367;DHT22;16877;48.810;9.282;2023-06-14T16:07:15;45.60;23.20
1367;DHT22;16877;48.810;9.282;2023-06-14T16:09:42;45.60;23.20